Aviation Digital Data Service (ADDS)

Output produced by METARs form (1150 UTC 23 June 2021)
found at http://www.aviationweather.gov/metar/data/
 
Forecast for: ZSNB (NINGBO/LISHE , CN)
Text: TAF ZSNB 230908Z 2312/2412 14004MPS 5000 BR SCT040 TX30/2406Z TN21/2321Z
Forecast period: 1200 UTC 23 June 2021 to 1200 UTC 24 June 2021
Forecast type: FROM: standard forecast or significant change
Winds: from the SE (140 degrees) at 9 MPH (8 knots; 4.1 m/s)
Visibility: 3 miles (5 km)
Ceiling: at least 12,000 feet AGL
Clouds: scattered clouds at 4000 feet AGL
Weather: BR  (mist)